Island Park, Idaho
Current Conditions -  °F | °C
As of 11:53 AM on Tuesday 27 Jan 2015 (Local Time) from KRXE Reporting Station
Clear Clear  
Wind Chill: 45°   Ceiling: Unl
Heat Index: 45°   Visibility: 10mi
Dew Point: 26°   Wind: 3mph
Humidity: 48%   Direction: 40°NE
Pressure: 30.16"   Gusts: NA
Location:  44.42°N, 111.37°W
Report Text: KRXE 271853Z AUTO 04003KT 10SM CLR 07/M03 A3016 RMK AO2 SLP228 T00721033
Loading
Personal Weather Stations






























Interactive Weather Map New forecast layout! Learn more

10-Day Weather Forecast

Advertisements
Track Severe Weather on mobile